Time;durP1;ratioP1;P1;durP2;ratioP2;P2;SDS_P1;SDS_P2;PMS_P1;PMS_P2;Temp;Humidity;BMP_temperature;BMP_pressure;BME280_temperature;BME280_humidity;BME280_pressure;Samples;Min_cycle;Max_cycle;Signal;HPM_P1;HPM_P2
2023/08/30 00:00:39;;;;;;;11.98;6.35;;;20.00;99.90;;;;;;5072419;28;20037;-79
2023/08/30 00:03:05;;;;;;;16.35;6.53;;;20.00;99.90;;;;;;5071213;28;20024;-78
2023/08/30 00:05:32;;;;;;;21.27;6.95;;;20.00;99.90;;;;;;5071271;28;20028;-79
2023/08/30 00:07:57;;;;;;;9.95;6.57;;;20.00;99.90;;;;;;5072641;28;20025;-78
2023/08/30 00:10:23;;;;;;;9.30;6.75;;;20.00;99.90;;;;;;5071339;28;20032;-79
2023/08/30 00:12:49;;;;;;;9.90;6.45;;;19.90;99.90;;;;;;5072445;28;20036;-79
2023/08/30 00:15:14;;;;;;;8.82;6.03;;;19.90;99.90;;;;;;5070883;28;20115;-77
2023/08/30 00:17:40;;;;;;;11.45;6.82;;;19.80;99.90;;;;;;5071013;28;20060;-78
2023/08/30 00:20:06;;;;;;;13.50;6.82;;;19.80;99.90;;;;;;5072274;28;20101;-78
2023/08/30 00:22:33;;;;;;;11.05;6.93;;;19.80;99.90;;;;;;5072130;28;20028;-76
2023/08/30 00:24:59;;;;;;;16.38;7.28;;;19.80;99.90;;;;;;5072217;28;20032;-80
2023/08/30 00:27:24;;;;;;;10.95;7.53;;;19.80;99.90;;;;;;5072307;28;20043;-78
2023/08/30 00:29:50;;;;;;;13.48;6.97;;;19.80;99.90;;;;;;5070661;28;20119;-79
2023/08/30 00:32:16;;;;;;;14.27;7.18;;;19.80;99.90;;;;;;5072200;28;20032;-79
2023/08/30 00:34:41;;;;;;;12.95;7.05;;;19.80;99.90;;;;;;5071999;28;20035;-80
2023/08/30 00:37:08;;;;;;;15.77;7.07;;;19.70;99.90;;;;;;5070862;28;20059;-79
2023/08/30 00:39:37;;;;;;;9.75;6.70;;;19.70;99.90;;;;;;5071987;28;20032;-79
2023/08/30 00:42:05;;;;;;;10.32;6.10;;;19.70;99.90;;;;;;5070943;28;20021;-79
2023/08/30 00:44:32;;;;;;;8.63;6.47;;;19.70;99.90;;;;;;5070527;28;20120;-78
2023/08/30 00:46:58;;;;;;;9.20;6.55;;;19.80;99.90;;;;;;5070492;28;20572;-80
2023/08/30 00:49:24;;;;;;;13.65;7.18;;;19.80;99.90;;;;;;5070563;28;20393;-79
2023/08/30 00:51:50;;;;;;;9.60;6.53;;;19.80;99.90;;;;;;5071905;28;20017;-78
2023/08/30 00:54:16;;;;;;;11.95;7.25;;;19.80;99.90;;;;;;5070470;28;20029;-80
2023/08/30 00:56:43;;;;;;;12.30;7.47;;;19.80;99.90;;;;;;5071495;28;20504;-79
2023/08/30 00:59:09;;;;;;;11.15;7.43;;;19.70;99.90;;;;;;5071452;28;20041;-78
2023/08/30 01:01:34;;;;;;;11.35;6.72;;;19.70;99.90;;;;;;5071705;28;20013;-80
2023/08/30 01:04:00;;;;;;;16.10;6.93;;;19.60;99.90;;;;;;5071562;28;20033;-80
2023/08/30 01:06:26;;;;;;;12.30;6.95;;;19.60;99.90;;;;;;5071786;28;20779;-81
2023/08/30 01:08:52;;;;;;;13.07;6.82;;;19.60;99.90;;;;;;5070216;28;20044;-81
2023/08/30 01:11:44;;;;;;;11.75;6.90;;;19.60;99.90;;;;;;5071635;28;20025;-81
2023/08/30 01:14:15;;;;;;;8.85;6.57;;;19.50;99.90;;;;;;5069967;28;20412;-79
2023/08/30 01:16:42;;;;;;;10.93;6.30;;;19.50;99.90;;;;;;5071226;28;20029;-81
2023/08/30 01:19:49;;;;;;;11.48;6.07;;;19.40;99.90;;;;;;5071623;28;20357;-79
2023/08/30 01:22:52;;;;;;;13.13;6.78;;;19.40;99.90;;;;;;5080157;28;20044;-81
2023/08/30 01:25:43;;;;;;;10.85;7.10;;;19.40;99.90;;;;;;5071325;28;20060;-81
2023/08/30 01:28:09;;;;;;;16.02;7.00;;;19.30;99.90;;;;;;5070091;28;20286;-80
2023/08/30 01:30:39;;;;;;;11.40;6.85;;;19.30;99.90;;;;;;5069834;28;20025;-80
2023/08/30 01:33:06;;;;;;;17.77;8.07;;;19.20;99.90;;;;;;5070175;28;20040;-81
2023/08/30 01:35:36;;;;;;;18.08;8.90;;;19.10;99.90;;;;;;5071347;28;20485;-83
2023/08/30 01:38:04;;;;;;;17.90;7.72;;;19.10;99.90;;;;;;5071055;28;20031;-83
2023/08/30 01:40:35;;;;;;;9.88;8.00;;;19.10;99.90;;;;;;5069556;28;20060;-82
2023/08/30 01:43:04;;;;;;;11.30;7.53;;;19.10;99.90;;;;;;5069424;28;20025;-82
2023/08/30 01:45:31;;;;;;;11.43;6.78;;;19.10;99.90;;;;;;5069502;28;20016;-82
2023/08/30 01:47:57;;;;;;;11.13;7.80;;;19.00;99.90;;;;;;5069338;28;20036;-82
2023/08/30 01:50:24;;;;;;;10.02;6.30;;;19.00;99.90;;;;;;5070506;28;20108;-80
2023/08/30 01:52:51;;;;;;;11.82;7.50;;;18.90;99.90;;;;;;5070185;28;20051;-80
2023/08/30 01:55:20;;;;;;;13.70;7.30;;;18.90;99.90;;;;;;5070408;28;20107;-81
2023/08/30 01:57:45;;;;;;;11.25;7.07;;;18.90;99.90;;;;;;5070246;28;20455;-82
2023/08/30 02:00:12;;;;;;;10.98;6.25;;;18.80;99.90;;;;;;5069060;28;20539;-83
2023/08/30 02:02:38;;;;;;;15.57;7.38;;;18.80;99.90;;;;;;5070076;28;20111;-81
2023/08/30 02:05:04;;;;;;;10.63;6.97;;;18.70;99.90;;;;;;5068897;28;20119;-81
2023/08/30 02:08:00;;;;;;;8.98;6.50;;;18.60;99.90;;;;;;5085850;28;20404;-80
2023/08/30 02:10:34;;;;;;;15.90;7.28;;;18.50;99.90;;;;;;5069024;28;20078;-83
2023/08/30 02:13:01;;;;;;;18.10;7.05;;;18.50;99.90;;;;;;5068968;28;20044;-79
2023/08/30 02:15:29;;;;;;;9.25;6.50;;;18.40;99.90;;;;;;5068353;28;20205;-79
2023/08/30 02:17:55;;;;;;;6.78;5.53;;;18.30;99.90;;;;;;5068689;28;20028;-79
2023/08/30 02:20:22;;;;;;;13.20;7.63;;;18.20;99.90;;;;;;5069662;28;20063;-79
2023/08/30 02:22:47;;;;;;;7.93;6.97;;;18.20;99.90;;;;;;5069774;28;20111;-80
2023/08/30 02:25:13;;;;;;;13.00;7.68;;;18.10;99.90;;;;;;5069850;28;20120;-80
2023/08/30 02:27:38;;;;;;;10.85;8.30;;;18.10;99.90;;;;;;5069779;28;20036;-80
2023/08/30 02:30:05;;;;;;;15.73;8.45;;;18.00;99.90;;;;;;5069676;28;20039;-81
2023/08/30 02:32:30;;;;;;;11.75;8.88;;;18.00;99.90;;;;;;5069713;28;20110;-81
2023/08/30 02:34:57;;;;;;;15.88;8.32;;;17.90;99.90;;;;;;5069639;28;20118;-79
2023/08/30 02:37:23;;;;;;;10.77;7.57;;;17.90;99.90;;;;;;5068278;28;20404;-81
2023/08/30 02:39:49;;;;;;;10.80;8.13;;;17.90;99.90;;;;;;5069661;28;20041;-83
2023/08/30 02:42:15;;;;;;;10.45;7.88;;;17.90;99.90;;;;;;5068446;28;20028;-83
2023/08/30 02:44:40;;;;;;;17.75;7.95;;;17.90;99.90;;;;;;5069962;28;20078;-83
2023/08/30 02:47:06;;;;;;;11.05;8.38;;;17.80;99.90;;;;;;5069898;28;20107;-82
2023/08/30 02:49:32;;;;;;;18.25;8.02;;;17.80;99.90;;;;;;5069597;28;20104;-83
2023/08/30 02:51:57;;;;;;;11.48;8.52;;;17.80;99.90;;;;;;5068393;28;20048;-84
2023/08/30 02:54:23;;;;;;;16.40;8.95;;;17.90;99.90;;;;;;5069484;28;20029;-82
2023/08/30 02:56:50;;;;;;;13.80;7.55;;;17.80;99.90;;;;;;5069433;28;20496;-81
2023/08/30 02:59:15;;;;;;;9.90;7.28;;;17.90;99.90;;;;;;5069450;28;20100;-83
2023/08/30 03:01:41;;;;;;;9.98;7.70;;;17.80;99.90;;;;;;5068539;28;20124;-83
2023/08/30 03:04:08;;;;;;;8.32;7.43;;;17.80;99.90;;;;;;5068212;28;20048;-82
2023/08/30 03:06:34;;;;;;;11.50;7.47;;;17.80;99.90;;;;;;5068555;28;20055;-82
2023/08/30 03:09:00;;;;;;;9.95;7.70;;;17.70;99.90;;;;;;5068219;28;20511;-83
2023/08/30 03:11:26;;;;;;;11.48;8.15;;;17.80;99.90;;;;;;5071300;28;20115;-83
2023/08/30 03:13:54;;;;;;;11.80;8.32;;;17.70;99.90;;;;;;5072153;28;20119;-81
2023/08/30 03:16:19;;;;;;;9.98;8.13;;;17.70;99.90;;;;;;5072646;28;20520;-79
2023/08/30 03:18:46;;;;;;;20.70;8.48;;;17.70;99.90;;;;;;5072349;28;20074;-80
2023/08/30 03:21:11;;;;;;;13.82;8.90;;;17.70;99.90;;;;;;5071946;28;20054;-80
2023/08/30 03:23:38;;;;;;;16.15;9.07;;;17.70;99.90;;;;;;5072029;28;20020;-82
2023/08/30 03:26:11;;;;;;;11.13;8.27;;;17.80;99.90;;;;;;5074659;28;20059;-82
2023/08/30 03:28:38;;;;;;;11.60;8.38;;;17.80;99.90;;;;;;5083219;28;20020;-84
2023/08/30 03:31:18;;;;;;;11.10;8.38;;;17.80;99.90;;;;;;5093522;28;20031;-83
2023/08/30 03:33:44;;;;;;;15.35;8.65;;;17.90;99.90;;;;;;5093377;28;20552;-83
2023/08/30 03:36:11;;;;;;;12.63;9.48;;;17.90;99.90;;;;;;5092153;28;20028;-82
2023/08/30 03:38:37;;;;;;;15.32;9.18;;;18.00;99.90;;;;;;5093300;28;20401;-82
2023/08/30 03:41:04;;;;;;;14.63;9.95;;;18.00;99.90;;;;;;5092041;28;20412;-81
2023/08/30 03:43:30;;;;;;;19.50;9.50;;;18.10;99.90;;;;;;5093272;28;20092;-82
2023/08/30 03:45:56;;;;;;;14.80;9.57;;;18.20;99.90;;;;;;5091572;28;20024;-80
2023/08/30 03:48:22;;;;;;;17.38;10.02;;;18.20;99.90;;;;;;5093109;28;20503;-80
2023/08/30 03:50:47;;;;;;;15.15;9.20;;;18.20;99.90;;;;;;5093104;28;20111;-82
2023/08/30 03:53:13;;;;;;;14.68;9.38;;;18.20;99.90;;;;;;5092702;28;20028;-84
2023/08/30 03:55:40;;;;;;;12.75;8.75;;;18.20;99.90;;;;;;5091474;28;20396;-82
2023/08/30 03:58:05;;;;;;;13.70;8.45;;;18.20;99.90;;;;;;5093101;28;20489;-83
2023/08/30 04:00:31;;;;;;;15.50;8.38;;;18.10;99.90;;;;;;5091414;28;20085;-81
2023/08/30 04:02:57;;;;;;;12.80;8.00;;;18.10;99.90;;;;;;5091519;28;20583;-83
2023/08/30 04:05:22;;;;;;;12.45;8.50;;;18.10;99.90;;;;;;5091480;28;20032;-84
2023/08/30 04:07:48;;;;;;;12.10;8.07;;;18.10;99.90;;;;;;5090818;28;20024;-81
2023/08/30 04:10:14;;;;;;;11.65;7.82;;;18.10;99.90;;;;;;5088839;28;20500;-80
2023/08/30 04:12:40;;;;;;;14.85;7.57;;;18.20;99.90;;;;;;5072304;28;20385;-82
2023/08/30 04:15:06;;;;;;;14.65;8.38;;;18.20;99.90;;;;;;5070840;28;20151;-82
2023/08/30 04:17:31;;;;;;;12.35;8.73;;;18.30;99.90;;;;;;5070987;28;20074;-82
2023/08/30 04:19:57;;;;;;;18.98;9.45;;;18.40;99.90;;;;;;5070561;28;20036;-81
2023/08/30 04:22:22;;;;;;;12.30;8.10;;;18.40;99.90;;;;;;5087169;28;20032;-80
2023/08/30 04:24:49;;;;;;;17.50;9.50;;;18.40;99.90;;;;;;5070993;28;20195;-82
2023/08/30 04:27:15;;;;;;;14.73;10.45;;;18.50;99.90;;;;;;5072134;28;20024;-82
2023/08/30 04:29:44;;;;;;;20.60;10.18;;;18.50;99.90;;;;;;5070734;28;20028;-82
2023/08/30 04:32:10;;;;;;;14.10;9.10;;;18.50;99.90;;;;;;5071915;28;20031;-81
2023/08/30 04:34:36;;;;;;;14.00;10.85;;;18.50;99.90;;;;;;5072161;28;20028;-80
2023/08/30 04:37:02;;;;;;;11.85;9.10;;;18.60;99.90;;;;;;5070912;28;20060;-82
2023/08/30 04:39:28;;;;;;;15.10;10.38;;;18.70;99.90;;;;;;5071814;28;20071;-82
2023/08/30 04:41:55;;;;;;;13.55;9.57;;;18.80;99.90;;;;;;5071759;28;20056;-82
2023/08/30 04:44:24;;;;;;;14.25;9.43;;;18.90;99.90;;;;;;5071893;28;20020;-81
2023/08/30 04:46:50;;;;;;;11.68;9.63;;;19.00;99.90;;;;;;5071870;28;20028;-81
2023/08/30 04:49:16;;;;;;;14.80;9.55;;;19.10;99.90;;;;;;5071862;28;20091;-81
2023/08/30 04:51:42;;;;;;;18.25;8.77;;;19.20;99.90;;;;;;5071964;28;20046;-81
2023/08/30 04:54:07;;;;;;;13.30;8.88;;;19.30;99.90;;;;;;5071432;28;20021;-81
2023/08/30 04:56:33;;;;;;;11.80;8.98;;;19.40;99.90;;;;;;5071295;28;20031;-80
2023/08/30 04:58:58;;;;;;;13.73;9.00;;;19.50;99.90;;;;;;5071737;28;20032;-79
2023/08/30 05:01:24;;;;;;;15.32;9.30;;;19.60;99.90;;;;;;5070667;28;20051;-79
2023/08/30 05:03:50;;;;;;;10.02;8.35;;;19.70;99.90;;;;;;5071454;28;20083;-80
2023/08/30 05:06:16;;;;;;;12.63;8.30;;;19.70;99.90;;;;;;5070322;28;20039;-81
2023/08/30 05:08:42;;;;;;;17.15;8.85;;;19.80;99.90;;;;;;5071320;28;20477;-81
2023/08/30 05:11:08;;;;;;;15.07;8.43;;;19.90;99.90;;;;;;5069954;28;20519;-79
2023/08/30 05:13:33;;;;;;;14.18;8.20;;;20.00;99.90;;;;;;5069948;28;20028;-77
2023/08/30 05:15:59;;;;;;;16.00;9.38;;;20.20;99.90;;;;;;5071089;28;20056;-78
2023/08/30 05:18:25;;;;;;;15.23;9.55;;;20.40;99.90;;;;;;5069595;28;20030;-79
2023/08/30 05:20:50;;;;;;;11.30;8.57;;;20.50;99.90;;;;;;5070976;28;20025;-80
2023/08/30 05:23:16;;;;;;;13.40;9.45;;;20.70;99.90;;;;;;5071126;28;20451;-78
2023/08/30 05:25:42;;;;;;;15.63;10.10;;;20.80;99.90;;;;;;5069748;28;20592;-80
2023/08/30 05:28:08;;;;;;;11.35;9.32;;;20.90;99.90;;;;;;5069952;28;20033;-79
2023/08/30 05:30:33;;;;;;;10.63;9.52;;;21.10;99.90;;;;;;5069506;28;20025;-79
2023/08/30 05:32:59;;;;;;;13.52;9.50;;;21.30;99.90;;;;;;5068813;28;20032;-79
2023/08/30 05:35:24;;;;;;;20.17;9.45;;;21.40;99.90;;;;;;5086356;28;20020;-79
2023/08/30 05:37:50;;;;;;;19.65;9.32;;;21.60;99.90;;;;;;5070796;28;20033;-79
2023/08/30 05:40:17;;;;;;;22.40;9.15;;;21.80;99.90;;;;;;5069377;28;20032;-80
2023/08/30 05:42:42;;;;;;;18.90;8.35;;;22.10;99.90;;;;;;5069964;28;20020;-79
2023/08/30 05:45:08;;;;;;;12.48;8.20;;;22.40;99.90;;;;;;5068778;28;20677;-80
2023/08/30 05:47:34;;;;;;;11.70;8.82;;;22.70;99.90;;;;;;5070180;28;20040;-79
2023/08/30 05:50:00;;;;;;;15.77;9.23;;;23.10;99.90;;;;;;5069168;28;20020;-79
2023/08/30 05:52:25;;;;;;;18.15;9.52;;;23.50;99.90;;;;;;5070384;28;20029;-79
2023/08/30 05:54:51;;;;;;;21.55;8.43;;;23.80;99.90;;;;;;5070338;28;20021;-79
2023/08/30 05:57:17;;;;;;;13.15;8.02;;;24.00;99.90;;;;;;5085962;28;20690;-79
2023/08/30 05:59:42;;;;;;;11.00;7.30;;;24.10;99.90;;;;;;5070150;28;20036;-79
2023/08/30 06:02:08;;;;;;;17.02;8.25;;;24.30;99.90;;;;;;5085833;28;20020;-80
2023/08/30 06:04:34;;;;;;;9.80;6.95;;;24.20;99.90;;;;;;5070203;28;20511;-79
2023/08/30 06:06:59;;;;;;;13.20;7.53;;;24.10;99.90;;;;;;5070287;28;20104;-80
2023/08/30 06:09:25;;;;;;;8.63;7.32;;;24.00;99.90;;;;;;5070078;28;20485;-80
2023/08/30 06:11:50;;;;;;;12.30;7.80;;;23.90;99.90;;;;;;5068748;28;20036;-80
2023/08/30 06:14:16;;;;;;;14.10;8.32;;;23.80;99.90;;;;;;5068429;28;20119;-80
2023/08/30 06:16:44;;;;;;;14.15;8.18;;;23.50;99.90;;;;;;5068546;28;20033;-79
2023/08/30 06:19:11;;;;;;;9.73;7.00;;;23.30;99.90;;;;;;5069885;28;20029;-79
2023/08/30 06:21:36;;;;;;;12.40;6.60;;;23.20;99.90;;;;;;5068318;28;20028;-79
2023/08/30 06:24:04;;;;;;;12.48;7.82;;;23.10;99.90;;;;;;5069984;28;20048;-79
2023/08/30 06:26:29;;;;;;;10.65;7.88;;;23.10;99.90;;;;;;5069879;28;20020;-79
2023/08/30 06:28:55;;;;;;;9.60;6.93;;;23.10;99.90;;;;;;5070010;28;20530;-80
2023/08/30 06:31:20;;;;;;;10.82;7.93;;;23.30;99.90;;;;;;5069695;28;20801;-79
2023/08/30 06:33:48;;;;;;;10.20;7.25;;;23.60;99.90;;;;;;5068412;28;20025;-79
2023/08/30 06:36:15;;;;;;;12.23;7.43;;;23.90;99.90;;;;;;5068486;28;20029;-79
2023/08/30 06:38:41;;;;;;;12.90;7.85;;;24.30;99.90;;;;;;5069509;28;20473;-80
2023/08/30 06:41:07;;;;;;;17.10;7.63;;;24.50;99.90;;;;;;5069629;28;20043;-78
2023/08/30 06:43:33;;;;;;;11.07;7.93;;;24.60;99.90;;;;;;5070094;28;20078;-79
2023/08/30 06:45:59;;;;;;;12.65;6.95;;;24.70;99.90;;;;;;5070082;28;20027;-79
2023/08/30 06:48:25;;;;;;;14.85;7.55;;;25.10;99.90;;;;;;5069674;28;20048;-80
2023/08/30 06:50:50;;;;;;;12.57;6.47;;;25.40;99.90;;;;;;5070224;28;20063;-80
2023/08/30 06:53:16;;;;;;;10.88;7.05;;;25.50;99.90;;;;;;5069553;28;20511;-80
2023/08/30 06:55:42;;;;;;;13.40;7.25;;;25.90;99.90;;;;;;5068015;28;20556;-80
2023/08/30 06:58:07;;;;;;;10.80;7.30;;;26.20;99.90;;;;;;5069306;28;20497;-80
2023/08/30 07:00:33;;;;;;;10.23;6.63;;;26.60;99.90;;;;;;5067994;28;20455;-78
2023/08/30 07:02:59;;;;;;;9.55;6.47;;;27.10;99.90;;;;;;5069398;28;20494;-80
2023/08/30 07:05:24;;;;;;;11.35;5.82;;;27.50;99.90;;;;;;5084858;28;20556;-79
2023/08/30 07:07:50;;;;;;;8.25;6.22;;;28.10;96.30;;;;;;5067913;28;20062;-77
2023/08/30 07:10:16;;;;;;;15.90;6.10;;;28.70;95.50;;;;;;5084705;28;20577;-79
2023/08/30 07:12:42;;;;;;;8.32;5.82;;;29.20;93.40;;;;;;5069318;28;20017;-78
2023/08/30 07:15:08;;;;;;;11.57;5.97;;;29.90;90.20;;;;;;5069044;28;20048;-78
2023/08/30 07:17:34;;;;;;;9.82;5.80;;;30.40;84.30;;;;;;5068035;28;20028;-79
2023/08/30 07:19:59;;;;;;;8.60;5.43;;;30.70;80.40;;;;;;5069033;28;20033;-80
2023/08/30 07:22:25;;;;;;;15.32;5.93;;;31.30;77.80;;;;;;5067866;28;20028;-79
2023/08/30 07:24:51;;;;;;;9.02;5.93;;;31.70;73.10;;;;;;5069155;28;20139;-79
2023/08/30 07:27:16;;;;;;;9.77;6.53;;;31.40;70.80;;;;;;5069032;28;20826;-79
2023/08/30 07:29:43;;;;;;;11.20;6.43;;;30.90;72.20;;;;;;5084830;28;20063;-79
2023/08/30 07:32:09;;;;;;;11.32;6.90;;;30.70;72.00;;;;;;5067727;28;20119;-79
2023/08/30 07:34:35;;;;;;;11.45;7.45;;;30.20;72.60;;;;;;5069159;28;20107;-78
2023/08/30 07:37:01;;;;;;;9.27;7.40;;;29.50;75.00;;;;;;5069095;28;20500;-79
2023/08/30 07:39:27;;;;;;;9.48;7.82;;;28.70;77.40;;;;;;5069091;28;20047;-79
2023/08/30 07:41:53;;;;;;;13.90;8.55;;;28.10;83.10;;;;;;5069089;28;20107;-78
2023/08/30 07:44:20;;;;;;;14.82;9.18;;;28.10;86.00;;;;;;5067694;28;20024;-79
2023/08/30 07:46:46;;;;;;;14.13;9.27;;;28.70;84.60;;;;;;5067657;28;20032;-79
2023/08/30 07:49:12;;;;;;;12.88;9.43;;;28.90;82.50;;;;;;5067653;28;20405;-79
2023/08/30 07:51:37;;;;;;;15.55;9.85;;;29.70;80.20;;;;;;5068911;28;20036;-79
2023/08/30 07:54:03;;;;;;;12.52;8.80;;;30.60;75.60;;;;;;5068738;28;20065;-79
2023/08/30 07:56:29;;;;;;;12.65;9.38;;;31.30;70.80;;;;;;5069984;28;20043;-78
2023/08/30 07:58:55;;;;;;;11.65;7.78;;;32.20;67.00;;;;;;5088247;28;20599;-79
2023/08/30 08:01:20;;;;;;;17.55;9.90;;;32.10;64.50;;;;;;5072502;28;20032;-82
2023/08/30 08:03:47;;;;;;;14.68;8.55;;;31.60;64.70;;;;;;5071137;28;20024;-81
2023/08/30 08:06:12;;;;;;;15.40;9.65;;;30.90;66.50;;;;;;5071145;28;20028;-81
2023/08/30 08:08:38;;;;;;;14.75;9.18;;;30.70;67.20;;;;;;5072516;28;20519;-81
2023/08/30 08:11:04;;;;;;;11.45;7.75;;;31.20;64.60;;;;;;5071117;28;20029;-78
2023/08/30 08:13:31;;;;;;;17.67;8.60;;;31.80;64.00;;;;;;5072293;28;20506;-78
2023/08/30 08:15:57;;;;;;;12.05;7.97;;;32.60;60.20;;;;;;5087846;28;20048;-79
2023/08/30 08:18:23;;;;;;;12.43;8.48;;;32.90;59.70;;;;;;5071370;28;20052;-79
2023/08/30 08:20:48;;;;;;;8.35;6.85;;;33.00;59.30;;;;;;5072078;28;20257;-79
2023/08/30 08:23:14;;;;;;;10.93;6.22;;;32.90;56.90;;;;;;5072254;28;20032;-79
2023/08/30 08:25:40;;;;;;;9.63;7.13;;;33.40;57.20;;;;;;5088447;28;20033;-78
2023/08/30 08:28:06;;;;;;;9.68;6.40;;;33.60;53.40;;;;;;5072197;28;20378;-78
2023/08/30 08:30:31;;;;;;;10.20;7.15;;;33.20;54.80;;;;;;5072057;28;20098;-79
2023/08/30 08:32:58;;;;;;;10.10;6.50;;;33.00;54.60;;;;;;5070828;28;20524;-79
2023/08/30 08:35:24;;;;;;;7.60;5.15;;;32.90;54.00;;;;;;5072082;28;20020;-80
2023/08/30 08:37:50;;;;;;;8.55;4.63;;;32.80;52.40;;;;;;5070592;28;20077;-79
2023/08/30 08:40:16;;;;;;;6.43;4.38;;;32.60;53.30;;;;;;5071800;28;20029;-79
2023/08/30 08:42:42;;;;;;;7.75;5.35;;;32.90;53.10;;;;;;5071773;28;20400;-78
2023/08/30 08:45:10;;;;;;;9.57;5.68;;;33.20;51.00;;;;;;5071886;28;20029;-78
2023/08/30 08:47:37;;;;;;;8.10;4.57;;;33.20;52.40;;;;;;5070521;28;20522;-79
2023/08/30 08:50:03;;;;;;;5.82;4.40;;;33.00;52.70;;;;;;5071615;28;20017;-78
2023/08/30 08:52:30;;;;;;;8.25;4.28;;;33.10;51.50;;;;;;5071750;28;20025;-81
2023/08/30 08:54:56;;;;;;;6.18;4.35;;;33.30;50.70;;;;;;5071677;28;20104;-79
2023/08/30 08:57:22;;;;;;;7.88;4.63;;;33.50;50.10;;;;;;5071673;28;20024;-78
2023/08/30 08:59:47;;;;;;;6.68;4.30;;;33.60;49.30;;;;;;5070194;28;20032;-79
2023/08/30 09:02:14;;;;;;;12.48;4.95;;;33.40;49.30;;;;;;5086933;28;20111;-78
2023/08/30 09:04:40;;;;;;;9.18;4.18;;;33.30;49.30;;;;;;5070080;28;20028;-79
2023/08/30 09:07:06;;;;;;;7.47;4.38;;;33.10;49.70;;;;;;5070926;28;20078;-78
2023/08/30 09:09:34;;;;;;;8.27;4.10;;;32.90;49.40;;;;;;5070669;28;20020;-79
2023/08/30 09:12:00;;;;;;;10.80;3.92;;;33.00;50.40;;;;;;5071161;28;20485;-79
2023/08/30 09:14:25;;;;;;;9.25;3.47;;;33.10;50.50;;;;;;5086777;28;20036;-78
2023/08/30 09:17:00;;;;;;;7.68;3.05;;;33.40;49.90;;;;;;5071137;28;20374;-79
2023/08/30 09:19:26;;;;;;;6.90;3.33;;;34.10;48.20;;;;;;5069760;28;20068;-81
2023/08/30 09:21:55;;;;;;;7.38;2.80;;;34.60;47.50;;;;;;5086558;28;20060;-81
2023/08/30 09:24:21;;;;;;;4.68;2.92;;;34.80;47.00;;;;;;5070232;28;20024;-79
2023/08/30 09:26:49;;;;;;;5.22;3.78;;;35.10;45.70;;;;;;5069453;28;20050;-79
2023/08/30 09:29:17;;;;;;;7.55;4.43;;;35.00;46.80;;;;;;5069433;28;20024;-78
2023/08/30 09:31:43;;;;;;;10.77;3.92;;;34.50;47.70;;;;;;5070718;28;20082;-78
2023/08/30 09:34:11;;;;;;;6.07;3.25;;;34.20;48.00;;;;;;5069703;28;20024;-78
2023/08/30 09:36:38;;;;;;;6.35;3.35;;;34.10;49.00;;;;;;5070544;28;20115;-79
2023/08/30 09:39:09;;;;;;;4.53;2.58;;;34.40;48.80;;;;;;5069299;28;20497;-77
2023/08/30 09:41:45;;;;;;;6.78;3.22;;;34.50;48.60;;;;;;5069340;28;20377;-79
2023/08/30 09:44:14;;;;;;;6.18;4.38;;;34.80;47.90;;;;;;5069140;28;20059;-77
2023/08/30 09:46:45;;;;;;;5.30;2.80;;;35.10;47.40;;;;;;5070414;28;20039;-80
2023/08/30 09:49:12;;;;;;;6.45;2.22;;;35.10;46.30;;;;;;5069064;28;20025;-81
2023/08/30 09:51:42;;;;;;;5.10;2.60;;;35.00;45.30;;;;;;5086021;28;20036;-80
2023/08/30 09:54:17;;;;;;;9.18;2.78;;;35.20;44.60;;;;;;5068991;28;20056;-81
2023/08/30 09:56:44;;;;;;;2.42;2.00;;;35.30;44.40;;;;;;5068866;28;20094;-81
2023/08/30 09:59:11;;;;;;;10.57;2.90;;;35.20;44.10;;;;;;5068912;28;20043;-80
2023/08/30 10:01:38;;;;;;;6.30;2.75;;;35.30;44.60;;;;;;5070212;28;20432;-80
2023/08/30 10:04:04;;;;;;;7.88;2.92;;;35.30;45.10;;;;;;5070274;28;20060;-80
2023/08/30 10:06:32;;;;;;;6.07;2.65;;;35.80;44.80;;;;;;5085766;28;20028;-80
2023/08/30 10:08:59;;;;;;;4.43;2.65;;;35.50;44.20;;;;;;5070779;28;20448;-80
2023/08/30 10:11:28;;;;;;;5.72;2.88;;;34.90;45.10;;;;;;5068532;28;20035;-80
2023/08/30 10:13:55;;;;;;;4.78;2.60;;;34.50;45.90;;;;;;5069807;28;20409;-80
2023/08/30 10:16:23;;;;;;;7.65;2.78;;;34.40;46.20;;;;;;5069900;28;20079;-80
2023/08/30 10:19:07;;;;;;;4.85;2.42;;;34.70;45.40;;;;;;5069466;28;20021;-81
2023/08/30 10:21:35;;;;;;;4.30;2.60;;;34.80;45.50;;;;;;5069861;28;20123;-80
2023/08/30 10:24:03;;;;;;;3.80;2.00;;;33.90;47.00;;;;;;5070196;28;20029;-81
2023/08/30 10:26:29;;;;;;;5.68;2.55;;;33.30;47.30;;;;;;5068337;28;20078;-81
2023/08/30 10:28:57;;;;;;;4.55;2.40;;;32.80;47.50;;;;;;5085328;28;20012;-80
2023/08/30 10:31:23;;;;;;;6.05;2.50;;;32.20;49.00;;;;;;5069607;28;20025;-81
2023/08/30 10:33:55;;;;;;;5.15;2.60;;;31.80;50.20;;;;;;5068401;28;20066;-79
2023/08/30 10:36:25;;;;;;;5.25;2.72;;;31.50;51.40;;;;;;5068339;28;20029;-81
2023/08/30 10:38:53;;;;;;;6.18;2.75;;;31.40;53.50;;;;;;5069489;28;20523;-79
2023/08/30 10:41:22;;;;;;;4.43;2.22;;;31.20;52.50;;;;;;5069553;28;20032;-81
2023/08/30 10:43:54;;;;;;;5.10;2.85;;;30.80;51.80;;;;;;5068162;28;20067;-80
2023/08/30 10:46:34;;;;;;;10.40;3.47;;;30.60;53.60;;;;;;5069671;28;20037;-79
2023/08/30 10:49:15;;;;;;;4.30;2.80;;;30.10;55.40;;;;;;5068195;28;20038;-80
2023/08/30 10:51:41;;;;;;;7.60;2.97;;;30.00;56.70;;;;;;5069449;28;20032;-81
2023/08/30 10:54:17;;;;;;;5.90;3.03;;;29.60;55.70;;;;;;5069330;28;20064;-80
2023/08/30 10:56:48;;;;;;;7.05;2.92;;;29.40;57.30;;;;;;5068061;28;20429;-80
2023/08/30 10:59:21;;;;;;;7.00;2.80;;;29.30;58.50;;;;;;5069178;28;20544;-79
2023/08/30 11:01:51;;;;;;;8.25;3.33;;;29.30;58.20;;;;;;5069304;28;20493;-79
2023/08/30 11:04:18;;;;;;;9.55;3.10;;;29.20;59.10;;;;;;5069334;28;20105;-80
2023/08/30 11:06:48;;;;;;;6.13;2.90;;;28.90;58.40;;;;;;5067918;28;20055;-81
2023/08/30 11:09:17;;;;;;;6.18;2.75;;;28.70;59.60;;;;;;5068095;28;20106;-80
2023/08/30 11:11:43;;;;;;;3.42;2.30;;;28.70;59.30;;;;;;5069355;28;20030;-79
2023/08/30 11:14:10;;;;;;;4.35;2.25;;;28.60;59.00;;;;;;5069010;28;20032;-79
2023/08/30 11:16:36;;;;;;;10.13;2.25;;;28.60;59.30;;;;;;5069092;28;20028;-81
2023/08/30 11:19:03;;;;;;;7.70;2.17;;;28.50;59.60;;;;;;5069227;28;20028;-79
2023/08/30 11:21:42;;;;;;;5.85;2.38;;;28.40;59.60;;;;;;5067766;28;20040;-80
2023/08/30 11:24:08;;;;;;;4.70;2.10;;;28.50;60.20;;;;;;5069398;28;20036;-80
2023/08/30 11:26:34;;;;;;;4.45;2.00;;;28.40;58.70;;;;;;5069319;28;20035;-81
2023/08/30 11:29:07;;;;;;;5.63;2.08;;;28.40;60.00;;;;;;5069067;28;20496;-79
2023/08/30 11:31:33;;;;;;;5.03;2.30;;;28.40;60.10;;;;;;5070446;28;20108;-80
2023/08/30 11:33:59;;;;;;;6.25;2.72;;;28.20;61.40;;;;;;5073059;28;20104;-80
2023/08/30 11:36:30;;;;;;;5.75;2.42;;;28.20;60.90;;;;;;5071770;28;20377;-80
2023/08/30 11:38:57;;;;;;;4.72;2.00;;;28.30;61.20;;;;;;5072862;28;20028;-81
2023/08/30 11:41:24;;;;;;;10.18;1.73;;;28.50;60.00;;;;;;5072824;28;20029;-80
2023/08/30 11:43:51;;;;;;;3.47;1.77;;;28.50;59.90;;;;;;5072964;28;20043;-80
2023/08/30 11:46:18;;;;;;;4.45;2.05;;;28.40;59.30;;;;;;5071671;28;20025;-80
2023/08/30 11:48:45;;;;;;;3.47;2.17;;;28.50;59.30;;;;;;5073254;28;20074;-82
2023/08/30 11:51:12;;;;;;;9.90;2.70;;;28.50;60.70;;;;;;5072007;28;20385;-79
2023/08/30 11:53:38;;;;;;;4.30;2.70;;;28.40;61.40;;;;;;5073223;28;20038;-79
2023/08/30 11:56:06;;;;;;;5.68;2.67;;;28.20;62.30;;;;;;5071414;28;20029;-79
2023/08/30 11:58:35;;;;;;;4.43;2.80;;;28.10;62.70;;;;;;5071444;28;20064;-79
2023/08/30 12:01:05;;;;;;;11.98;2.45;;;28.30;63.30;;;;;;5071380;28;20066;-80
2023/08/30 12:03:31;;;;;;;9.77;3.05;;;28.20;62.50;;;;;;5072641;28;20111;-79
2023/08/30 12:05:58;;;;;;;5.00;2.42;;;28.10;62.70;;;;;;5071164;28;20396;-79
2023/08/30 12:08:25;;;;;;;3.88;2.30;;;27.80;63.10;;;;;;5072666;28;20017;-79
2023/08/30 12:10:51;;;;;;;3.72;2.35;;;27.60;63.80;;;;;;5071106;28;20021;-79
2023/08/30 12:13:21;;;;;;;8.70;2.45;;;27.50;64.20;;;;;;5072388;28;20020;-78
2023/08/30 12:15:47;;;;;;;5.65;2.42;;;27.50;65.10;;;;;;5070774;28;20048;-79
2023/08/30 12:18:13;;;;;;;6.40;3.08;;;27.80;65.50;;;;;;5071100;28;20495;-78
2023/08/30 12:20:39;;;;;;;5.78;2.90;;;27.90;66.40;;;;;;5087660;28;20033;-79
2023/08/30 12:23:04;;;;;;;4.20;2.40;;;28.00;66.20;;;;;;5072357;28;20021;-80
2023/08/30 12:25:32;;;;;;;6.13;2.90;;;28.00;66.60;;;;;;5072192;28;20028;-79
2023/08/30 12:27:57;;;;;;;6.38;2.70;;;28.10;66.90;;;;;;5072134;28;20020;-79
2023/08/30 12:30:23;;;;;;;4.60;2.88;;;27.90;66.90;;;;;;5070835;28;20123;-79
2023/08/30 12:32:49;;;;;;;11.00;2.70;;;27.90;67.90;;;;;;5070708;28;20127;-79
2023/08/30 12:35:15;;;;;;;3.35;2.47;;;27.90;68.60;;;;;;5070691;28;20043;-79
2023/08/30 12:37:40;;;;;;;6.95;3.20;;;27.90;67.00;;;;;;5072033;28;20032;-79
2023/08/30 12:40:07;;;;;;;5.68;2.35;;;27.70;67.90;;;;;;5071684;28;20397;-79